createdAt,value
2023-05-02T00:00:17.452Z,67.05
2023-05-02T00:03:03.890Z,67.30
2023-05-02T00:05:30.326Z,66.90
2023-05-02T00:07:56.803Z,66.81
2023-05-02T00:10:23.100Z,66.51
2023-05-02T00:12:49.251Z,66.53
2023-05-02T00:15:15.333Z,67.28
2023-05-02T00:17:41.700Z,67.12
2023-05-02T00:20:08.758Z,66.94
2023-05-02T00:22:35.186Z,66.99
2023-05-02T00:25:02.924Z,66.80
2023-05-02T00:27:29.082Z,66.78
2023-05-02T00:29:55.256Z,66.94
2023-05-02T00:32:21.741Z,67.07
2023-05-02T00:34:48.664Z,67.12
2023-05-02T00:37:15.329Z,67.54
2023-05-02T00:39:44.329Z,67.69
2023-05-02T00:42:10.480Z,67.63
2023-05-02T00:44:36.622Z,67.38
2023-05-02T00:47:03.740Z,67.42
2023-05-02T00:49:30.508Z,67.31
2023-05-02T00:51:56.569Z,67.63
2023-05-02T00:54:22.702Z,67.38
2023-05-02T00:56:49.132Z,67.35
2023-05-02T00:59:15.273Z,68.15
2023-05-02T01:01:41.695Z,68.41
2023-05-02T01:04:08.668Z,68.89
2023-05-02T01:06:36.941Z,68.38
2023-05-02T01:09:07.292Z,68.65
2023-05-02T01:11:34.144Z,68.38
2023-05-02T01:14:00.893Z,68.59
2023-05-02T01:16:29.762Z,68.23
2023-05-02T01:18:55.861Z,68.26
2023-05-02T01:21:23.229Z,68.29
2023-05-02T01:23:49.648Z,68.71
2023-05-02T01:26:17.151Z,69.22
2023-05-02T01:28:44.666Z,68.93
2023-05-02T01:31:14.467Z,68.91
2023-05-02T01:33:41.552Z,68.98
2023-05-02T01:36:07.667Z,68.79
2023-05-02T01:38:36.171Z,68.66
2023-05-02T01:41:04.664Z,68.79
2023-05-02T01:43:31.328Z,68.84
2023-05-02T01:45:57.924Z,68.75
2023-05-02T01:48:24.021Z,68.62
2023-05-02T01:50:50.329Z,68.62
2023-05-02T01:53:16.692Z,69.22
2023-05-02T01:55:42.933Z,69.97
2023-05-02T01:58:11.824Z,69.85
2023-05-02T02:00:38.975Z,69.56
2023-05-02T02:03:06.766Z,69.57
2023-05-02T02:05:32.895Z,69.73
2023-05-02T02:08:01.650Z,70.12
2023-05-02T02:10:28.080Z,70.57
2023-05-02T02:12:54.162Z,71.30
2023-05-02T02:15:20.524Z,71.00
2023-05-02T02:17:47.162Z,71.69
2023-05-02T02:20:13.640Z,72.14
2023-05-02T02:22:39.858Z,71.84
2023-05-02T02:25:07.707Z,71.75
2023-05-02T02:27:33.892Z,71.76
2023-05-02T02:30:01.169Z,72.15
2023-05-02T02:32:27.494Z,72.19
2023-05-02T02:34:54.601Z,72.87
2023-05-02T02:37:20.771Z,72.88
2023-05-02T02:39:47.030Z,73.04
2023-05-02T02:42:13.128Z,72.91
2023-05-02T02:44:39.277Z,72.65
2023-05-02T02:47:05.431Z,72.57
2023-05-02T02:49:31.558Z,72.62
2023-05-02T02:51:57.999Z,73.14
2023-05-02T02:54:27.165Z,72.91
2023-05-02T02:56:53.671Z,73.45
2023-05-02T02:59:19.770Z,73.37
2023-05-02T03:01:45.920Z,73.18
2023-05-02T03:04:12.158Z,73.55
2023-05-02T03:06:38.347Z,73.44
2023-05-02T03:09:04.671Z,73.46
2023-05-02T03:11:30.739Z,72.95
2023-05-02T03:13:56.939Z,72.91
2023-05-02T03:16:23.067Z,73.04
2023-05-02T03:18:49.209Z,73.49
2023-05-02T03:21:15.730Z,74.01
2023-05-02T03:23:41.890Z,74.25
2023-05-02T03:26:08.019Z,74.87
2023-05-02T03:28:34.148Z,75.21
2023-05-02T03:31:00.420Z,75.13
2023-05-02T03:33:26.656Z,75.29
2023-05-02T03:35:52.898Z,74.73
2023-05-02T03:38:19.002Z,74.78
2023-05-02T03:40:45.318Z,74.56
2023-05-02T03:43:11.484Z,74.55
2023-05-02T03:45:37.641Z,74.32
2023-05-02T03:48:03.783Z,74.13
2023-05-02T03:50:30.419Z,74.37
2023-05-02T03:52:56.519Z,74.32
2023-05-02T03:55:22.612Z,74.21
2023-05-02T03:57:48.827Z,74.12
2023-05-02T04:00:15.268Z,74.20
2023-05-02T04:02:41.630Z,74.22
2023-05-02T04:05:07.938Z,74.31
2023-05-02T04:07:34.026Z,74.51
2023-05-02T04:10:00.317Z,74.76
2023-05-02T04:12:26.649Z,74.59
2023-05-02T04:14:52.837Z,75.00
2023-05-02T04:17:19.000Z,75.19
2023-05-02T04:19:45.285Z,74.96
2023-05-02T04:22:11.652Z,75.07
2023-05-02T04:24:37.715Z,75.84
2023-05-02T04:27:03.928Z,75.92
2023-05-02T04:29:30.157Z,75.97
2023-05-02T04:31:56.219Z,75.78
2023-05-02T04:34:22.523Z,76.23
2023-05-02T04:36:48.600Z,76.27
2023-05-02T04:39:14.845Z,75.55
2023-05-02T04:41:42.462Z,75.21
2023-05-02T04:44:08.537Z,74.86
2023-05-02T04:46:34.850Z,74.43
2023-05-02T04:49:01.524Z,73.81
2023-05-02T04:51:28.471Z,73.22
2023-05-02T04:53:54.623Z,72.77
2023-05-02T04:56:21.261Z,72.43
2023-05-02T04:58:47.366Z,72.28
2023-05-02T05:01:13.509Z,71.94
2023-05-02T05:03:39.782Z,71.18
2023-05-02T05:06:05.990Z,70.51
2023-05-02T05:08:33.073Z,70.69
2023-05-02T05:10:59.245Z,70.07
2023-05-02T05:13:25.383Z,68.90
2023-05-02T05:15:51.648Z,68.85
2023-05-02T05:18:18.192Z,69.94
2023-05-02T05:20:44.328Z,70.58
2023-05-02T05:23:10.409Z,70.64
2023-05-02T05:25:36.585Z,70.85
2023-05-02T05:28:02.753Z,71.20
2023-05-02T05:30:30.379Z,71.28
2023-05-02T05:32:58.132Z,71.18
2023-05-02T05:35:24.418Z,71.17
2023-05-02T05:37:50.666Z,71.27
2023-05-02T05:40:17.020Z,70.83
2023-05-02T05:42:43.217Z,71.24
2023-05-02T05:45:09.655Z,71.74
2023-05-02T05:47:35.930Z,72.20
2023-05-02T05:50:02.355Z,72.74
2023-05-02T05:52:28.794Z,72.54
2023-05-02T05:54:55.867Z,72.34
2023-05-02T05:57:22.338Z,72.15
2023-05-02T05:59:48.622Z,72.10
2023-05-02T06:02:15.867Z,72.23
2023-05-02T06:04:42.113Z,71.85
2023-05-02T06:07:08.261Z,72.14
2023-05-02T06:09:34.434Z,72.26
2023-05-02T06:12:01.457Z,71.99
2023-05-02T06:14:27.549Z,71.47
2023-05-02T06:16:53.749Z,70.98
2023-05-02T06:19:20.009Z,71.24
2023-05-02T06:21:46.612Z,71.27
2023-05-02T06:24:12.798Z,70.93
2023-05-02T06:26:38.887Z,69.39
2023-05-02T06:29:04.980Z,69.17
2023-05-02T06:31:31.120Z,68.86
2023-05-02T06:33:57.325Z,68.68
2023-05-02T06:36:27.003Z,68.59
2023-05-02T06:38:53.268Z,68.23
2023-05-02T06:41:20.083Z,67.34
2023-05-02T06:43:46.311Z,66.77
2023-05-02T06:46:12.502Z,65.12
2023-05-02T06:48:38.650Z,64.14
2023-05-02T06:51:04.789Z,64.15
2023-05-02T06:53:32.924Z,63.18
2023-05-02T06:55:59.409Z,62.96
2023-05-02T06:58:25.696Z,63.68
2023-05-02T07:00:52.087Z,63.94
2023-05-02T07:03:18.189Z,63.82
2023-05-02T07:05:44.286Z,63.44
2023-05-02T07:08:10.950Z,63.09
2023-05-02T07:10:37.125Z,62.11
2023-05-02T07:13:03.258Z,62.17
2023-05-02T07:15:29.499Z,62.27
2023-05-02T07:17:55.657Z,61.85
2023-05-02T07:20:21.873Z,61.60
2023-05-02T07:22:48.177Z,62.20
2023-05-02T07:25:14.260Z,61.05
2023-05-02T07:27:40.569Z,61.27
2023-05-02T07:30:06.758Z,61.91
2023-05-02T07:32:33.032Z,62.38
2023-05-02T07:34:59.340Z,62.36
2023-05-02T07:37:25.616Z,62.72
2023-05-02T07:39:51.760Z,61.90
2023-05-02T07:42:17.867Z,61.49
2023-05-02T07:44:44.171Z,61.08
2023-05-02T07:47:10.266Z,61.00
2023-05-02T07:49:36.357Z,60.46
2023-05-02T07:52:02.609Z,59.79
2023-05-02T07:54:29.222Z,57.20
2023-05-02T07:56:58.010Z,56.50
2023-05-02T07:59:24.161Z,56.27
2023-05-02T08:01:50.379Z,56.65
2023-05-02T08:04:16.834Z,56.12
2023-05-02T08:06:43.135Z,56.48
2023-05-02T08:09:09.264Z,56.51
2023-05-02T08:11:35.435Z,56.24
2023-05-02T08:14:01.677Z,56.28
2023-05-02T08:16:27.882Z,57.10
2023-05-02T08:18:54.252Z,57.63
2023-05-02T08:21:20.508Z,56.93
2023-05-02T08:23:46.610Z,55.63
2023-05-02T08:26:12.751Z,55.84
2023-05-02T08:28:38.860Z,55.91
2023-05-02T08:31:05.113Z,55.16
2023-05-02T08:33:31.429Z,55.58
2023-05-02T08:35:57.583Z,55.30
2023-05-02T08:38:23.699Z,55.62
2023-05-02T08:40:49.791Z,55.10
2023-05-02T08:43:15.966Z,54.47
2023-05-02T08:45:42.235Z,54.30
2023-05-02T08:48:09.790Z,54.74
2023-05-02T08:50:36.209Z,52.77
2023-05-02T08:53:02.358Z,51.30
2023-05-02T08:55:28.840Z,52.63
2023-05-02T08:57:55.055Z,52.87
2023-05-02T09:00:21.118Z,52.58
2023-05-02T09:02:47.393Z,53.12
2023-05-02T09:05:15.819Z,52.29
2023-05-02T09:07:41.908Z,52.38
2023-05-02T09:10:08.016Z,51.67
2023-05-02T09:12:34.128Z,52.04
2023-05-02T09:15:00.538Z,50.92
2023-05-02T09:17:26.870Z,50.74
2023-05-02T09:19:53.043Z,49.65
2023-05-02T09:22:19.138Z,49.11
2023-05-02T09:24:45.265Z,48.26
2023-05-02T09:27:12.622Z,47.47
2023-05-02T09:29:40.150Z,48.17
2023-05-02T09:32:06.294Z,48.06
2023-05-02T09:34:33.065Z,49.20
2023-05-02T09:36:59.145Z,48.76
2023-05-02T09:39:26.143Z,48.32
2023-05-02T09:41:52.661Z,48.33
2023-05-02T09:44:18.793Z,47.80
2023-05-02T09:46:45.136Z,47.99
2023-05-02T09:49:11.657Z,47.29
2023-05-02T09:51:37.780Z,46.57
2023-05-02T09:54:03.894Z,47.98
2023-05-02T09:56:30.079Z,47.90
2023-05-02T09:58:56.172Z,47.38
2023-05-02T10:01:22.355Z,46.29
2023-05-02T10:03:48.541Z,45.92
2023-05-02T10:06:14.854Z,47.40
2023-05-02T10:08:40.965Z,45.53
2023-05-02T10:11:07.099Z,45.52
2023-05-02T10:13:34.131Z,45.64
2023-05-02T10:16:00.778Z,44.59
2023-05-02T10:18:27.399Z,45.10
2023-05-02T10:20:53.653Z,44.72
2023-05-02T10:23:19.856Z,43.59
2023-05-02T10:25:46.025Z,44.11
2023-05-02T10:28:12.289Z,44.12
2023-05-02T10:30:38.400Z,43.94
2023-05-02T10:33:04.559Z,43.33
2023-05-02T10:35:32.276Z,42.85
2023-05-02T10:37:58.649Z,43.42
2023-05-02T10:40:25.257Z,43.66
2023-05-02T10:42:52.344Z,44.08
2023-05-02T10:45:18.408Z,43.76
2023-05-02T10:47:44.972Z,42.94
2023-05-02T10:50:11.148Z,43.52
2023-05-02T10:52:40.866Z,44.36
2023-05-02T10:55:06.972Z,45.09
2023-05-02T10:57:33.073Z,47.45
2023-05-02T10:59:59.217Z,48.99
2023-05-02T11:02:27.532Z,50.38
2023-05-02T11:04:53.778Z,51.05
2023-05-02T11:07:20.335Z,51.68
2023-05-02T11:09:46.462Z,52.41
2023-05-02T11:12:12.584Z,52.99
2023-05-02T11:14:39.089Z,52.86
2023-05-02T11:17:05.687Z,52.93
2023-05-02T11:19:31.896Z,52.94
2023-05-02T11:21:57.990Z,52.91
2023-05-02T11:24:24.162Z,53.53
2023-05-02T11:26:50.390Z,53.19
2023-05-02T11:29:16.501Z,53.15
2023-05-02T11:31:43.113Z,52.92
2023-05-02T11:34:10.041Z,52.43
2023-05-02T11:36:36.195Z,52.59
2023-05-02T11:39:02.876Z,51.65
2023-05-02T11:41:29.004Z,51.01
2023-05-02T11:43:55.056Z,51.11
2023-05-02T11:46:21.600Z,51.92
2023-05-02T11:48:47.892Z,51.89
2023-05-02T11:51:14.063Z,51.01
2023-05-02T11:53:40.818Z,50.24
2023-05-02T11:56:08.227Z,50.77
2023-05-02T11:58:34.602Z,50.39
2023-05-02T12:01:00.812Z,50.42
2023-05-02T12:03:27.127Z,50.02
2023-05-02T12:05:53.447Z,49.56
2023-05-02T12:08:20.003Z,48.10
2023-05-02T12:10:46.061Z,47.86
2023-05-02T12:13:12.169Z,47.70
2023-05-02T12:15:38.295Z,48.42
2023-05-02T12:18:04.635Z,48.89
2023-05-02T12:20:31.219Z,48.19
2023-05-02T12:22:57.359Z,48.32
2023-05-02T12:25:23.610Z,48.70
2023-05-02T12:27:49.985Z,46.93
2023-05-02T12:30:16.331Z,47.28
2023-05-02T12:32:44.868Z,46.78
2023-05-02T12:35:13.741Z,46.40
2023-05-02T12:37:39.991Z,46.24
2023-05-02T12:40:06.431Z,44.94
2023-05-02T12:42:33.836Z,45.83
2023-05-02T12:45:00.395Z,45.37
2023-05-02T12:47:26.670Z,45.05
2023-05-02T12:49:52.994Z,43.88
2023-05-02T12:52:19.149Z,43.93
2023-05-02T12:54:46.521Z,44.31
2023-05-02T12:57:12.946Z,44.14
2023-05-02T12:59:40.313Z,44.25
2023-05-02T13:02:06.514Z,44.07
2023-05-02T13:04:32.851Z,43.08
2023-05-02T13:06:59.037Z,42.92
2023-05-02T13:09:25.365Z,43.39
2023-05-02T13:11:53.380Z,43.89
2023-05-02T13:14:19.607Z,43.93
2023-05-02T13:16:45.835Z,43.96
2023-05-02T13:19:12.143Z,44.49
2023-05-02T13:21:38.259Z,45.02
2023-05-02T13:24:04.460Z,44.97
2023-05-02T13:26:30.544Z,44.32
2023-05-02T13:28:56.697Z,43.80
2023-05-02T13:31:22.848Z,44.03
2023-05-02T13:33:48.974Z,44.13
2023-05-02T13:36:15.329Z,44.18
2023-05-02T13:38:41.470Z,43.32
2023-05-02T13:41:07.623Z,43.91
2023-05-02T13:43:33.891Z,44.31
2023-05-02T13:46:00.088Z,43.88
2023-05-02T13:48:26.232Z,43.86
2023-05-02T13:50:52.598Z,43.32
2023-05-02T13:53:18.747Z,43.82
2023-05-02T13:55:45.067Z,44.57
2023-05-02T13:58:11.262Z,44.39
2023-05-02T14:00:37.434Z,44.50
2023-05-02T14:03:04.471Z,45.57
2023-05-02T14:05:30.668Z,45.56
2023-05-02T14:07:56.733Z,45.73
2023-05-02T14:10:22.843Z,45.74
2023-05-02T14:12:50.324Z,45.96
2023-05-02T14:15:16.625Z,46.15
2023-05-02T14:17:42.860Z,45.45
2023-05-02T14:20:09.850Z,45.53
2023-05-02T14:22:35.940Z,45.80
2023-05-02T14:25:02.184Z,46.29
2023-05-02T14:27:28.340Z,46.61
2023-05-02T14:29:54.615Z,46.34
2023-05-02T14:32:21.101Z,46.12
2023-05-02T14:34:47.234Z,45.66
2023-05-02T14:37:13.322Z,45.23
2023-05-02T14:39:41.572Z,45.02
2023-05-02T14:42:07.735Z,45.76
2023-05-02T14:44:33.981Z,45.31
2023-05-02T14:47:00.260Z,44.89
2023-05-02T14:49:26.413Z,45.00
2023-05-02T14:51:52.718Z,44.93
2023-05-02T14:54:19.594Z,44.88
2023-05-02T14:56:46.534Z,45.03
2023-05-02T14:59:12.730Z,45.57
2023-05-02T15:01:38.927Z,45.69
2023-05-02T15:04:07.788Z,45.70
2023-05-02T15:06:35.244Z,45.13
2023-05-02T15:09:01.978Z,45.12
2023-05-02T15:11:28.151Z,44.53
2023-05-02T15:13:54.824Z,43.11
2023-05-02T15:16:22.687Z,42.65
2023-05-02T15:18:49.158Z,42.16
2023-05-02T15:21:15.264Z,41.97
2023-05-02T15:23:41.656Z,43.10
2023-05-02T15:26:07.955Z,42.49
2023-05-02T15:28:34.041Z,42.96
2023-05-02T15:31:00.141Z,43.55
2023-05-02T15:33:26.559Z,43.84
2023-05-02T15:35:53.224Z,43.90
2023-05-02T15:38:19.383Z,44.88
2023-05-02T15:40:46.799Z,48.23
2023-05-02T15:43:12.876Z,51.52
2023-05-02T15:45:39.296Z,53.37
2023-05-02T15:48:05.441Z,55.00
2023-05-02T15:50:31.522Z,56.13
2023-05-02T15:52:57.806Z,57.40
2023-05-02T15:55:23.986Z,58.52
2023-05-02T15:57:51.275Z,59.16
2023-05-02T16:00:17.465Z,59.74
2023-05-02T16:02:43.957Z,60.93
2023-05-02T16:05:10.107Z,62.25
2023-05-02T16:07:36.335Z,63.95
2023-05-02T16:10:03.077Z,65.14
2023-05-02T16:12:29.510Z,66.19
2023-05-02T16:14:55.642Z,67.18
2023-05-02T16:17:21.972Z,67.77
2023-05-02T16:19:48.032Z,68.47
2023-05-02T16:22:14.181Z,68.76
2023-05-02T16:24:40.661Z,68.70
2023-05-02T16:27:06.876Z,69.01
2023-05-02T16:29:32.954Z,69.13
2023-05-02T16:31:59.247Z,69.64
2023-05-02T16:34:25.388Z,70.06
2023-05-02T16:36:52.368Z,69.98
2023-05-02T16:39:18.537Z,70.13
2023-05-02T16:41:44.624Z,70.13
2023-05-02T16:44:10.892Z,70.84
2023-05-02T16:46:37.008Z,70.60
2023-05-02T16:49:03.237Z,70.70
2023-05-02T16:51:31.032Z,70.98
2023-05-02T16:53:57.464Z,71.21
2023-05-02T16:56:23.580Z,71.17
2023-05-02T16:58:49.687Z,71.43
2023-05-02T17:01:16.648Z,71.82
2023-05-02T17:03:42.806Z,71.97
2023-05-02T17:06:09.145Z,71.90
2023-05-02T17:08:35.913Z,72.19
2023-05-02T17:11:02.061Z,72.32
2023-05-02T17:13:28.639Z,72.40
2023-05-02T17:15:55.364Z,72.24
2023-05-02T17:18:21.578Z,72.02
2023-05-02T17:20:48.291Z,71.97
2023-05-02T17:23:14.645Z,71.85
2023-05-02T17:25:41.047Z,71.64
2023-05-02T17:28:07.155Z,71.59
2023-05-02T17:30:33.315Z,71.73
2023-05-02T17:32:59.831Z,71.56
2023-05-02T17:35:26.063Z,71.61
2023-05-02T17:37:52.240Z,71.64
2023-05-02T17:40:18.328Z,71.92
2023-05-02T17:42:48.118Z,72.28
2023-05-02T17:45:14.395Z,72.60
2023-05-02T17:47:41.461Z,72.94
2023-05-02T17:50:08.074Z,73.39
2023-05-02T17:52:34.872Z,73.68
2023-05-02T17:55:01.374Z,73.55
2023-05-02T17:57:27.519Z,73.14
2023-05-02T17:59:57.738Z,73.13
2023-05-02T18:02:23.926Z,73.09
2023-05-02T18:04:50.196Z,73.16
2023-05-02T18:07:22.891Z,73.09
2023-05-02T18:09:49.244Z,73.12
2023-05-02T18:12:15.397Z,73.24
2023-05-02T18:14:41.797Z,73.39
2023-05-02T18:17:09.865Z,73.62
2023-05-02T18:19:36.243Z,73.55
2023-05-02T18:22:02.903Z,73.62
2023-05-02T18:24:29.022Z,73.46
2023-05-02T18:26:55.130Z,73.70
2023-05-02T18:29:21.226Z,73.77
2023-05-02T18:31:51.669Z,73.83
2023-05-02T18:34:17.818Z,74.20
2023-05-02T18:36:44.564Z,74.49
2023-05-02T18:39:10.650Z,74.70
2023-05-02T18:41:38.590Z,75.16
2023-05-02T18:44:06.186Z,75.91
2023-05-02T18:46:32.467Z,76.11
2023-05-02T18:48:58.640Z,76.16
2023-05-02T18:51:24.741Z,76.20
2023-05-02T18:53:50.857Z,76.50
2023-05-02T18:56:17.060Z,76.67
2023-05-02T18:58:43.549Z,76.87
2023-05-02T19:01:09.684Z,77.27
2023-05-02T19:03:35.860Z,77.22
2023-05-02T19:06:03.639Z,77.46
2023-05-02T19:08:29.725Z,76.98
2023-05-02T19:10:55.819Z,76.73
2023-05-02T19:13:21.921Z,76.97
2023-05-02T19:15:48.014Z,77.17
2023-05-02T19:18:14.463Z,77.30
2023-05-02T19:20:40.834Z,77.21
2023-05-02T19:25:41.241Z,78.07
2023-05-02T19:28:07.354Z,78.35
2023-05-02T19:30:33.530Z,78.38
2023-05-02T19:32:59.777Z,78.77
2023-05-02T19:35:27.894Z,78.63
2023-05-02T19:37:54.320Z,78.80
2023-05-02T19:40:20.404Z,79.42
2023-05-02T19:42:46.507Z,79.63
2023-05-02T19:45:13.162Z,79.56
2023-05-02T19:47:42.968Z,79.75
2023-05-02T19:50:09.204Z,79.64
2023-05-02T19:52:38.315Z,80.11
2023-05-02T19:55:04.730Z,80.28
2023-05-02T19:57:31.155Z,80.53
2023-05-02T19:59:57.562Z,80.44
2023-05-02T20:02:23.785Z,80.79
2023-05-02T20:04:50.043Z,80.47
2023-05-02T20:07:16.189Z,80.38
2023-05-02T20:09:42.281Z,80.56
2023-05-02T20:12:08.545Z,80.98
2023-05-02T20:14:34.686Z,81.01
2023-05-02T20:17:02.190Z,81.52
2023-05-02T20:19:31.647Z,81.49
2023-05-02T20:21:57.739Z,81.72
2023-05-02T20:24:23.804Z,81.73
2023-05-02T20:26:49.942Z,81.55
2023-05-02T20:29:16.030Z,81.39
2023-05-02T20:31:42.624Z,81.48
2023-05-02T20:34:08.882Z,81.49
2023-05-02T20:36:35.061Z,81.55
2023-05-02T20:39:04.016Z,81.38
2023-05-02T20:41:31.608Z,81.37
2023-05-02T20:43:59.309Z,81.43
2023-05-02T20:46:28.516Z,81.11
2023-05-02T20:48:55.146Z,80.91
2023-05-02T20:51:21.233Z,80.93
2023-05-02T20:53:48.279Z,80.93
2023-05-02T20:56:14.404Z,80.93
2023-05-02T20:58:40.671Z,80.80
2023-05-02T21:01:06.864Z,80.93
2023-05-02T21:03:35.873Z,80.94
2023-05-02T21:06:02.075Z,81.03
2023-05-02T21:08:28.251Z,80.95
2023-05-02T21:10:54.463Z,80.89
2023-05-02T21:13:20.542Z,80.86
2023-05-02T21:15:46.726Z,81.02
2023-05-02T21:18:12.907Z,81.00
2023-05-02T21:20:40.705Z,80.94
2023-05-02T21:23:06.800Z,81.01
2023-05-02T21:25:32.952Z,80.92
2023-05-02T21:27:59.046Z,80.99
2023-05-02T21:30:25.246Z,80.84
2023-05-02T21:32:51.343Z,80.72
2023-05-02T21:35:17.441Z,80.87
2023-05-02T21:37:43.748Z,80.98
2023-05-02T21:40:09.888Z,80.78
2023-05-02T21:42:36.013Z,80.74
2023-05-02T21:45:02.104Z,80.71
2023-05-02T21:47:28.332Z,80.90
2023-05-02T21:49:54.677Z,81.12
2023-05-02T21:52:20.779Z,81.13
2023-05-02T21:54:51.641Z,81.23
2023-05-02T21:57:18.356Z,81.34
2023-05-02T21:59:44.617Z,81.46
2023-05-02T22:02:11.402Z,81.44
2023-05-02T22:04:37.515Z,81.54
2023-05-02T22:07:04.234Z,81.71
2023-05-02T22:09:33.208Z,81.91
2023-05-02T22:11:59.647Z,81.97
2023-05-02T22:14:33.912Z,82.04
2023-05-02T22:17:07.580Z,81.95
2023-05-02T22:19:33.675Z,81.98
2023-05-02T22:22:01.012Z,81.91
2023-05-02T22:24:27.974Z,81.87
2023-05-02T22:26:55.096Z,81.86
2023-05-02T22:29:21.789Z,81.93
2023-05-02T22:31:49.309Z,82.02
2023-05-02T22:34:15.458Z,82.10
2023-05-02T22:36:41.553Z,82.10
2023-05-02T22:39:12.372Z,82.31
2023-05-02T22:41:38.715Z,82.46
2023-05-02T22:44:04.874Z,82.42
2023-05-02T22:46:31.081Z,82.41
2023-05-02T22:48:57.178Z,82.34
2023-05-02T22:51:23.354Z,82.46
2023-05-02T22:53:49.474Z,82.68
2023-05-02T22:56:15.679Z,83.13
2023-05-02T22:58:41.763Z,83.42
2023-05-02T23:01:08.121Z,83.82
2023-05-02T23:03:34.343Z,84.05
2023-05-02T23:06:00.593Z,84.27
2023-05-02T23:08:26.807Z,84.41
2023-05-02T23:10:52.927Z,84.63
2023-05-02T23:13:19.111Z,84.75
2023-05-02T23:15:45.305Z,84.91
2023-05-02T23:18:11.455Z,84.97
2023-05-02T23:20:37.591Z,85.11
2023-05-02T23:23:03.707Z,85.66
2023-05-02T23:25:29.790Z,85.43
2023-05-02T23:27:55.911Z,85.42
2023-05-02T23:30:22.052Z,85.07
2023-05-02T23:32:48.423Z,85.10
2023-05-02T23:35:14.935Z,85.36
2023-05-02T23:37:41.051Z,85.26
2023-05-02T23:40:08.586Z,85.24
2023-05-02T23:42:37.145Z,85.04
2023-05-02T23:45:03.336Z,85.09
2023-05-02T23:47:29.466Z,85.02
2023-05-02T23:49:55.642Z,84.83
2023-05-02T23:52:21.784Z,84.73
2023-05-02T23:54:47.924Z,84.66
2023-05-02T23:57:14.044Z,84.80
2023-05-02T23:59:43.212Z,85.14
